Time;durP1;ratioP1;P1;durP2;ratioP2;P2;SDS_P1;SDS_P2;PMS_P1;PMS_P2;Temp;Humidity;BMP_temperature;BMP_pressure;BME280_temperature;BME280_humidity;BME280_pressure;Samples;Min_cycle;Max_cycle;Signal;HPM_P1;HPM_P2
2021/07/25 00:01:36;;;;;;;34.40;14.68;;;;;;;18.77;75.85;100216.55;1745623;82;21175;-78
2021/07/25 00:04:41;;;;;;;31.82;13.72;;;;;;;18.75;75.96;100214.53;1745811;82;21160;-81
2021/07/25 00:07:47;;;;;;;30.70;14.38;;;;;;;18.74;76.02;100212.00;1745669;82;21258;-78
2021/07/25 00:10:53;;;;;;;34.18;14.33;;;;;;;18.74;75.89;100210.63;1731270;82;21314;-78
2021/07/25 00:14:02;;;;;;;33.88;15.30;;;;;;;18.72;75.79;100209.98;1745633;82;21835;-87
2021/07/25 00:17:05;;;;;;;25.48;13.72;;;;;;;18.72;75.84;100211.38;1745889;82;21225;-87
2021/07/25 00:20:10;;;;;;;28.50;14.68;;;;;;;18.70;75.94;100212.16;1745652;82;21309;-78
2021/07/25 00:23:18;;;;;;;33.95;15.08;;;;;;;18.65;76.11;100203.97;1745663;82;21309;-78
2021/07/25 00:26:26;;;;;;;29.90;15.05;;;;;;;18.58;76.25;100205.98;1746559;81;21297;-78
2021/07/25 00:29:31;;;;;;;42.38;15.10;;;;;;;18.52;76.32;100210.20;1748880;82;21273;-87
2021/07/25 00:32:36;;;;;;;29.50;13.20;;;;;;;18.51;76.28;100206.59;1748636;82;21286;-78
2021/07/25 00:35:42;;;;;;;31.87;13.83;;;;;;;18.51;76.23;100209.90;1748542;82;21306;-83
2021/07/25 00:38:48;;;;;;;28.45;14.50;;;;;;;18.49;76.13;100212.91;1748707;82;21274;-87
2021/07/25 00:41:53;;;;;;;32.85;14.05;;;;;;;18.48;75.90;100212.58;1747393;82;21215;-87
2021/07/25 00:44:59;;;;;;;27.60;14.38;;;;;;;18.46;75.76;100216.67;1748620;82;21277;-87
2021/07/25 00:48:05;;;;;;;29.37;13.85;;;;;;;18.45;75.67;100207.52;1748634;82;21278;-78
2021/07/25 00:51:13;;;;;;;32.67;14.68;;;;;;;18.46;75.73;100212.52;1734116;82;21234;-79
2021/07/25 00:54:19;;;;;;;25.37;13.75;;;;;;;18.43;75.75;100215.20;1747101;82;21368;-79
2021/07/25 00:57:23;;;;;;;37.67;14.90;;;;;;;18.37;76.00;100211.97;1735577;82;21317;-79
2021/07/25 01:00:29;;;;;;;34.30;13.78;;;;;;;18.35;76.17;100212.75;1748617;82;21313;-88
2021/07/25 01:04:05;;;;;;;36.03;14.13;;;;;;;18.31;76.46;100215.12;1748516;82;21195;-80
2021/07/25 01:07:49;;;;;;;30.25;13.88;;;;;;;18.28;76.57;100223.87;1748848;82;21202;-83
2021/07/25 01:10:54;;;;;;;35.95;14.33;;;;;;;18.27;76.61;100214.42;1748529;82;21282;-79
2021/07/25 01:14:00;;;;;;;30.70;13.62;;;;;;;18.27;76.60;100222.73;1747921;82;21167;-79
2021/07/25 01:17:33;;;;;;;33.00;14.03;;;;;;;18.26;76.63;100219.13;1747284;82;21831;-79
2021/07/25 01:20:39;;;;;;;26.65;13.30;;;;;;;18.25;76.68;100213.80;1748316;82;21743;-79
2021/07/25 01:23:45;;;;;;;33.08;15.20;;;;;;;18.22;76.65;100222.03;1747866;82;21309;-89
2021/07/25 01:26:51;;;;;;;32.10;14.50;;;;;;;18.18;76.78;100229.64;1748236;82;21167;-87
2021/07/25 01:29:58;;;;;;;29.75;14.83;;;;;;;18.15;76.77;100226.77;1745823;82;21321;-88
2021/07/25 01:33:06;;;;;;;30.20;14.33;;;;;;;18.14;76.78;100225.09;1745739;82;21152;-79
2021/07/25 01:36:12;;;;;;;28.52;14.45;;;;;;;18.15;76.93;100225.39;1745781;82;21848;-79
2021/07/25 01:39:16;;;;;;;29.67;13.75;;;;;;;18.14;77.04;100227.31;1745683;82;21263;-79
2021/07/25 01:42:36;;;;;;;46.15;14.73;;;;;;;18.09;77.06;100229.92;1745596;82;21744;-79
2021/07/25 01:45:40;;;;;;;39.27;15.33;;;;;;;18.04;77.07;100231.69;1745940;82;21306;-88
2021/07/25 01:48:45;;;;;;;38.05;14.60;;;;;;;18.00;77.11;100240.97;1745753;82;21314;-88
2021/07/25 01:51:50;;;;;;;34.38;14.40;;;;;;;17.99;77.17;100235.67;1745617;82;21301;-88
2021/07/25 01:54:55;;;;;;;30.65;15.03;;;;;;;17.99;77.24;100234.29;1745537;82;21282;-88
2021/07/25 01:58:01;;;;;;;42.20;14.98;;;;;;;17.97;77.09;100237.27;1745760;82;21282;-77
2021/07/25 02:01:07;;;;;;;28.90;14.40;;;;;;;17.96;76.94;100242.48;1744953;82;22222;-77
2021/07/25 02:04:13;;;;;;;32.05;14.65;;;;;;;17.98;76.84;100245.89;1745188;82;21309;-78
2021/07/25 02:07:19;;;;;;;29.57;15.43;;;;;;;18.01;76.77;100237.66;1745505;82;21839;-87
2021/07/25 02:10:25;;;;;;;24.75;14.03;;;;;;;18.03;76.64;100243.84;1745498;82;21195;-77
2021/07/25 02:13:33;;;;;;;30.95;13.85;;;;;;;18.02;76.48;100245.76;1745554;82;21211;-88
2021/07/25 02:16:38;;;;;;;38.78;13.95;;;;;;;18.04;76.37;100242.75;1744336;82;21779;-79
2021/07/25 02:19:44;;;;;;;35.90;14.93;;;;;;;18.05;76.26;100242.52;1745615;82;21330;-78
2021/07/25 02:22:52;;;;;;;31.37;14.78;;;;;;;18.04;76.20;100246.36;1745430;82;21289;-78
2021/07/25 02:25:57;;;;;;;36.40;14.35;;;;;;;18.08;76.06;100253.69;1744359;82;21334;-87
2021/07/25 02:29:04;;;;;;;46.77;15.75;;;;;;;18.11;76.00;100258.23;1746915;81;21317;-88
2021/07/25 02:32:10;;;;;;;39.50;16.40;;;;;;;18.12;76.04;100253.55;1747183;82;21305;-78
2021/07/25 02:35:17;;;;;;;34.78;15.35;;;;;;;18.15;76.03;100255.84;1747697;82;21727;-85
2021/07/25 02:38:22;;;;;;;33.60;15.40;;;;;;;18.27;75.96;100254.57;1746274;82;21673;-88
2021/07/25 02:41:27;;;;;;;35.95;16.90;;;;;;;18.47;75.68;100253.81;1747346;82;21851;-87
2021/07/25 02:44:32;;;;;;;30.50;16.73;;;;;;;18.70;75.14;100250.94;1748196;82;21349;-79
2021/07/25 02:47:38;;;;;;;34.60;17.48;;;;;;;18.94;74.49;100260.23;1748516;82;21410;-79
2021/07/25 02:50:43;;;;;;;32.67;15.32;;;;;;;19.19;73.75;100254.58;1748036;82;21309;-88
2021/07/25 02:53:51;;;;;;;32.98;16.95;;;;;;;19.41;73.05;100255.76;1748699;82;21281;-88
2021/07/25 02:56:55;;;;;;;33.15;16.85;;;;;;;19.65;72.37;100256.70;1747344;82;21178;-88
2021/07/25 03:00:01;;;;;;;28.52;15.98;;;;;;;19.93;71.45;100260.20;1748449;82;21886;-79
2021/07/25 03:03:07;;;;;;;33.42;14.58;;;;;;;20.17;70.38;100260.53;1747192;82;21281;-78
2021/07/25 03:06:13;;;;;;;29.10;14.35;;;;;;;20.39;69.53;100262.72;1747400;82;21293;-88
2021/07/25 03:09:19;;;;;;;31.37;15.58;;;;;;;20.56;68.63;100270.66;1748709;82;21693;-88
2021/07/25 03:12:26;;;;;;;28.30;15.60;;;;;;;20.71;68.12;100263.21;1748857;82;21301;-88
2021/07/25 03:15:30;;;;;;;27.67;15.32;;;;;;;20.87;67.63;100269.94;1748271;82;21744;-79
2021/07/25 03:18:38;;;;;;;33.50;16.73;;;;;;;21.03;67.11;100271.09;1748790;82;21278;-82
2021/07/25 03:21:37;;;;;;;32.48;15.85;;;;;;;21.14;66.90;100269.69;1747395;82;21856;-88
2021/07/25 03:24:42;;;;;;;29.65;14.98;;;;;;;21.29;66.42;100278.05;1748542;82;21850;-87
2021/07/25 03:27:47;;;;;;;35.48;16.97;;;;;;;21.47;66.09;100273.70;1748192;82;21203;-79
2021/07/25 03:30:52;;;;;;;35.58;15.50;;;;;;;21.66;65.53;100273.79;1747925;81;21290;-87
2021/07/25 03:33:59;;;;;;;38.08;16.95;;;;;;;21.81;65.47;100280.73;1748468;82;21163;-87
2021/07/25 03:37:04;;;;;;;33.38;16.35;;;;;;;21.94;65.36;100284.59;1747252;82;21313;-87
2021/07/25 03:40:10;;;;;;;39.55;16.93;;;;;;;22.10;64.79;100280.11;1748336;82;21314;-79
2021/07/25 03:43:15;;;;;;;28.45;16.82;;;;;;;22.24;64.21;100293.19;1748507;82;21298;-85
2021/07/25 03:46:20;;;;;;;36.00;15.72;;;;;;;22.37;63.87;100294.24;1748566;82;21314;-87
2021/07/25 03:49:26;;;;;;;34.92;17.27;;;;;;;22.46;63.98;100294.11;1748614;82;21331;-79
2021/07/25 03:52:32;;;;;;;33.53;19.05;;;;;;;22.51;64.44;100291.40;1748541;82;21274;-83
2021/07/25 03:55:37;;;;;;;43.95;18.32;;;;;;;22.60;64.60;100298.23;1748704;82;21345;-87
2021/07/25 03:58:42;;;;;;;32.98;18.27;;;;;;;22.74;64.30;100306.23;1748457;82;21293;-78
2021/07/25 04:01:48;;;;;;;33.05;16.90;;;;;;;22.92;63.79;100300.39;1747379;82;21858;-86
2021/07/25 04:04:54;;;;;;;37.53;16.70;;;;;;;23.12;63.19;100297.86;1748564;82;21289;-78
2021/07/25 04:07:59;;;;;;;34.50;17.73;;;;;;;23.21;62.47;100294.91;1748664;82;21471;-77
2021/07/25 04:11:07;;;;;;;29.12;16.70;;;;;;;23.25;62.17;100299.98;1747997;82;21368;-84
2021/07/25 04:14:12;;;;;;;29.12;15.50;;;;;;;23.33;61.94;100301.73;1747722;82;21238;-85
2021/07/25 04:17:17;;;;;;;27.90;15.72;;;;;;;23.45;61.79;100303.01;1748799;82;21274;-85
2021/07/25 04:20:23;;;;;;;30.90;15.03;;;;;;;23.58;61.86;100307.34;1747066;81;21759;-85
2021/07/25 04:23:28;;;;;;;30.02;15.95;;;;;;;23.70;61.52;100308.05;1748672;82;21273;-78
2021/07/25 04:26:33;;;;;;;29.95;15.20;;;;;;;23.79;60.49;100302.28;1748812;82;21309;-78
2021/07/25 04:29:38;;;;;;;31.00;15.55;;;;;;;23.89;60.22;100302.94;1748560;82;21306;-85
2021/07/25 04:32:42;;;;;;;25.48;14.75;;;;;;;23.98;60.04;100311.13;1713621;84;21734;-78
2021/07/25 04:35:47;;;;;;;26.50;16.90;;;;;;;24.07;60.20;100315.13;1713641;84;21212;-85
2021/07/25 04:38:51;;;;;;;33.02;17.98;;;;;;;24.18;60.53;100312.73;1693478;84;21275;-85
2021/07/25 04:42:02;;;;;;;28.35;15.50;;;;;;;24.31;60.89;100317.56;1713404;84;21343;-78
2021/07/25 04:45:13;;;;;;;38.75;16.62;;;;;;;24.44;60.92;100310.16;1712179;84;21386;-78
2021/07/25 04:49:13;;;;;;;24.92;13.75;;;;;;;24.54;61.01;100308.83;1713425;84;21308;-85
2021/07/25 04:52:18;;;;;;;23.57;12.80;;;;;;;24.62;59.23;100316.73;1713740;84;21276;-84
2021/07/25 04:55:23;;;;;;;33.30;13.58;;;;;;;24.70;59.07;100319.02;1713524;84;21204;-86
2021/07/25 04:58:28;;;;;;;22.70;13.00;;;;;;;24.79;57.99;100320.73;1713677;84;21810;-85
2021/07/25 05:01:35;;;;;;;20.72;12.25;;;;;;;24.90;57.46;100323.06;1713553;84;21846;-85
2021/07/25 05:04:40;;;;;;;24.80;12.37;;;;;;;24.99;57.34;100325.63;1713513;84;21287;-85
2021/07/25 05:07:48;;;;;;;19.67;11.73;;;;;;;25.10;57.75;100327.39;1713557;84;21260;-83
2021/07/25 05:10:59;;;;;;;21.68;11.18;;;;;;;25.26;57.03;100333.05;1712043;84;21899;-78
2021/07/25 05:14:06;;;;;;;22.10;11.18;;;;;;;25.41;56.28;100338.73;1713376;84;21328;-77
2021/07/25 05:17:46;;;;;;;21.90;11.22;;;;;;;25.50;55.26;100342.66;1712838;84;21175;-79
2021/07/25 05:21:18;;;;;;;24.65;12.65;;;;;;;25.62;53.72;100336.28;1712158;84;21323;-77
2021/07/25 05:24:24;;;;;;;20.30;11.40;;;;;;;25.76;53.86;100334.39;1712217;84;21280;-85
2021/07/25 05:27:31;;;;;;;17.40;10.38;;;;;;;25.83;53.12;100336.35;1712908;84;21310;-86
2021/07/25 05:30:39;;;;;;;20.08;11.03;;;;;;;25.86;52.73;100332.45;1713400;84;21225;-79
2021/07/25 05:33:44;;;;;;;17.82;10.23;;;;;;;25.94;52.52;100336.11;1748625;81;21198;-79
2021/07/25 05:36:50;;;;;;;18.35;11.03;;;;;;;26.05;52.42;100338.92;1747600;82;21321;-78
2021/07/25 05:39:56;;;;;;;21.90;10.63;;;;;;;26.18;52.58;100339.22;1748825;82;21317;-85
2021/07/25 05:43:01;;;;;;;19.55;10.13;;;;;;;26.28;51.45;100341.19;1748612;82;21230;-86
2021/07/25 05:46:08;;;;;;;17.48;9.95;;;;;;;26.37;51.61;100347.08;1747432;82;21296;-84
2021/07/25 05:49:14;;;;;;;22.32;9.78;;;;;;;26.49;50.90;100347.69;1747253;82;21747;-85
2021/07/25 05:52:19;;;;;;;14.38;8.93;;;;;;;26.67;51.27;100350.45;1747083;82;21712;-85
2021/07/25 05:55:30;;;;;;;22.02;8.68;;;;;;;26.82;50.80;100350.98;1747070;82;21307;-79
2021/07/25 05:58:34;;;;;;;26.48;9.35;;;;;;;26.92;49.32;100352.41;1748639;82;21837;-86
2021/07/25 06:01:41;;;;;;;13.43;8.63;;;;;;;26.98;49.44;100353.50;1747186;81;21218;-84
2021/07/25 06:04:46;;;;;;;18.87;9.25;;;;;;;27.09;47.92;100347.31;1747065;82;21285;-84
2021/07/25 06:07:54;;;;;;;18.98;8.55;;;;;;;27.21;48.10;100352.06;1747172;81;21746;-76
2021/07/25 06:11:00;;;;;;;14.93;8.90;;;;;;;27.31;46.94;100351.19;1747950;82;21863;-79
2021/07/25 06:14:06;;;;;;;14.00;7.58;;;;;;;27.31;46.51;100350.34;1748559;82;21270;-78
2021/07/25 06:17:13;;;;;;;20.05;9.23;;;;;;;27.30;46.04;100355.70;1747111;81;21187;-85
2021/07/25 06:20:18;;;;;;;20.02;8.58;;;;;;;27.41;47.70;100358.73;1748226;82;21329;-77
2021/07/25 06:23:24;;;;;;;15.48;8.63;;;;;;;27.44;46.64;100362.37;1748381;82;21787;-77
2021/07/25 06:26:31;;;;;;;19.07;9.43;;;;;;;27.46;46.53;100354.49;1747511;82;21349;-79
2021/07/25 06:29:37;;;;;;;14.58;7.78;;;;;;;27.59;46.80;100351.06;1747193;82;21318;-79
2021/07/25 06:33:09;;;;;;;16.07;7.85;;;;;;;27.65;47.61;100350.47;1749311;81;21322;-77
2021/07/25 06:36:24;;;;;;;16.10;8.05;;;;;;;27.64;47.17;100351.04;1747939;82;21736;-85
2021/07/25 06:39:29;;;;;;;14.50;7.67;;;;;;;27.75;46.16;100349.88;1747317;82;21282;-80
2021/07/25 06:42:35;;;;;;;17.62;7.70;;;;;;;27.86;46.23;100362.49;1748589;82;21274;-85
2021/07/25 06:45:41;;;;;;;16.75;6.92;;;;;;;28.01;46.43;100359.01;1748122;82;21571;-77
2021/07/25 06:48:46;;;;;;;12.30;7.40;;;;;;;28.17;45.70;100361.70;1748637;82;21345;-84
2021/07/25 06:51:51;;;;;;;15.43;8.10;;;;;;;28.25;45.22;100367.55;1735538;82;21222;-85
2021/07/25 06:54:56;;;;;;;11.95;6.90;;;;;;;28.35;44.82;100364.42;1748702;82;21156;-78
2021/07/25 06:58:02;;;;;;;12.50;7.37;;;;;;;28.47;45.53;100360.11;1748470;82;21744;-77
2021/07/25 07:01:08;;;;;;;18.87;7.03;;;;;;;28.56;45.15;100363.67;1748493;82;21867;-84
2021/07/25 07:04:14;;;;;;;14.20;4.97;;;;;;;28.48;44.60;100356.16;1748611;82;21293;-85
2021/07/25 07:07:18;;;;;;;14.60;7.37;;;;;;;28.44;42.08;100359.85;1748606;82;21834;-77
2021/07/25 07:10:27;;;;;;;13.60;7.25;;;;;;;28.42;44.69;100363.51;1748601;82;21309;-85
2021/07/25 07:13:32;;;;;;;13.62;7.35;;;;;;;28.46;44.76;100364.61;1748743;82;21804;-85
2021/07/25 07:16:37;;;;;;;16.27;6.85;;;;;;;28.53;45.27;100365.95;1748690;82;21285;-77
2021/07/25 07:19:43;;;;;;;10.58;5.65;;;;;;;28.57;44.35;100370.44;1748677;82;21851;-77
2021/07/25 07:22:48;;;;;;;15.45;5.97;;;;;;;28.52;43.09;100369.91;1748730;82;21242;-78
2021/07/25 07:25:57;;;;;;;13.53;6.10;;;;;;;28.48;43.03;100375.02;1748162;82;21786;-85
2021/07/25 07:29:02;;;;;;;9.20;5.05;;;;;;;28.53;42.29;100377.21;1748444;82;21301;-77
2021/07/25 07:32:07;;;;;;;9.33;5.28;;;;;;;28.53;42.29;100377.21;1748716;82;21215;-77
2021/07/25 07:35:12;;;;;;;7.47;5.40;;;;;;;28.59;41.76;100372.37;1745866;81;21213;-85
2021/07/25 07:38:19;;;;;;;8.28;5.42;;;;;;;28.65;42.17;100371.19;1745744;82;21278;-85
2021/07/25 07:41:25;;;;;;;6.17;4.80;;;;;;;28.77;42.37;100373.63;1745749;82;21305;-85
2021/07/25 07:44:33;;;;;;;9.10;4.30;;;;;;;28.81;41.66;100374.72;1731183;82;21914;-86
2021/07/25 07:47:37;;;;;;;6.47;4.03;;;;;;;28.74;39.97;100369.98;1745074;82;22235;-81
2021/07/25 07:50:43;;;;;;;10.35;4.00;;;;;;;28.72;39.28;100371.70;1744536;82;21321;-79
2021/07/25 07:53:49;;;;;;;10.65;3.70;;;;;;;28.80;39.14;100367.98;1745555;82;21790;-79
2021/07/25 07:56:55;;;;;;;7.30;4.00;;;;;;;28.80;39.14;100367.98;1744459;82;21203;-86
2021/07/25 08:00:01;;;;;;;10.13;4.20;;;;;;;28.91;39.88;100377.42;1744770;82;21285;-85
2021/07/25 08:03:06;;;;;;;6.97;3.90;;;;;;;28.89;38.94;100378.84;1744860;82;21356;-87
2021/07/25 08:06:13;;;;;;;10.93;4.47;;;;;;;28.84;39.15;100374.67;1744977;82;21340;-79
2021/07/25 08:09:20;;;;;;;12.03;4.08;;;;;;;28.95;38.31;100382.77;1745653;82;21349;-87
2021/07/25 08:12:28;;;;;;;9.03;3.83;;;;;;;28.95;38.31;100382.77;1745870;82;21930;-87
2021/07/25 08:15:34;;;;;;;18.85;4.83;;;;;;;28.95;38.53;100388.40;1745392;82;21198;-87
2021/07/25 08:18:40;;;;;;;10.20;3.80;;;;;;;28.87;38.53;100388.17;1745828;82;21289;-79
2021/07/25 08:21:45;;;;;;;10.70;3.83;;;;;;;28.80;38.23;100385.71;1745879;82;21317;-87
2021/07/25 08:24:49;;;;;;;10.82;3.47;;;;;;;28.87;38.77;100386.76;1745916;82;21799;-87
2021/07/25 08:27:54;;;;;;;12.63;3.70;;;;;;;28.90;37.00;100381.95;1745698;82;21147;-79
2021/07/25 08:31:01;;;;;;;9.95;4.60;;;;;;;28.90;37.00;100381.95;1744412;82;21178;-79
2021/07/25 08:34:07;;;;;;;7.00;3.75;;;;;;;28.90;37.39;100382.79;1744360;82;21344;-78
2021/07/25 08:37:15;;;;;;;10.03;4.30;;;;;;;29.07;38.43;100385.16;1745641;82;21238;-78
2021/07/25 08:40:22;;;;;;;7.83;3.80;;;;;;;29.07;38.43;100385.16;1745026;82;21321;-79
2021/07/25 08:43:27;;;;;;;10.20;3.60;;;;;;;29.17;36.88;100382.27;1745783;82;21795;-79
2021/07/25 08:46:33;;;;;;;12.37;3.60;;;;;;;29.28;36.75;100383.82;1744639;82;21852;-85
2021/07/25 08:50:01;;;;;;;8.73;3.27;;;;;;;29.30;37.13;100376.47;1729444;82;21183;-86
2021/07/25 08:53:06;;;;;;;12.70;3.80;;;;;;;29.28;37.88;100377.35;1745873;82;21206;-86
2021/07/25 08:56:11;;;;;;;6.25;2.92;;;;;;;29.31;37.04;100387.16;1745748;82;21297;-86
2021/07/25 08:59:18;;;;;;;7.22;2.77;;;;;;;29.31;37.04;100387.16;1745803;82;21302;-78
2021/07/25 09:02:32;;;;;;;5.08;3.00;;;;;;;29.28;36.73;100385.80;1745728;82;21171;-78
2021/07/25 09:05:37;;;;;;;8.48;3.55;;;;;;;29.31;36.04;100380.13;1745767;82;21337;-86
2021/07/25 09:08:42;;;;;;;16.45;3.42;;;;;;;29.42;36.94;100374.08;1745780;82;21274;-78
2021/07/25 09:11:47;;;;;;;7.45;3.45;;;;;;;29.56;35.78;100378.45;1744584;82;21297;-85
2021/07/25 09:14:56;;;;;;;4.90;3.20;;;;;;;29.62;36.51;100378.64;1745629;82;21275;-86
2021/07/25 09:18:01;;;;;;;6.12;3.67;;;;;;;29.60;34.92;100380.94;1745680;82;21270;-87
2021/07/25 09:21:06;;;;;;;6.65;3.37;;;;;;;29.62;35.64;100369.36;1745119;82;21337;-86
2021/07/25 09:24:33;;;;;;;6.75;3.77;;;;;;;29.61;36.79;100374.16;1745676;82;21282;-78
2021/07/25 09:27:38;;;;;;;8.08;3.17;;;;;;;29.60;36.26;100371.08;1745901;82;21277;-87
2021/07/25 09:30:43;;;;;;;9.50;3.47;;;;;;;29.56;35.22;100372.81;1745647;82;21214;-86
2021/07/25 09:33:54;;;;;;;11.97;4.22;;;;;;;29.64;35.11;100373.56;1745695;82;21345;-78
2021/07/25 09:37:21;;;;;;;7.95;3.37;;;;;;;29.72;35.83;100377.67;1745638;81;21285;-86
2021/07/25 09:40:27;;;;;;;6.08;3.60;;;;;;;29.65;36.78;100378.05;1745890;82;21345;-86
2021/07/25 09:43:31;;;;;;;7.33;3.30;;;;;;;29.40;37.15;100379.16;1745773;82;21159;-87
2021/07/25 09:46:50;;;;;;;11.85;3.67;;;;;;;29.33;37.77;100382.09;1745746;82;21736;-77
2021/07/25 09:49:55;;;;;;;7.65;4.45;;;;;;;29.34;38.06;100379.53;1745683;82;21167;-87
2021/07/25 09:53:01;;;;;;;8.65;4.75;;;;;;;29.45;36.30;100375.44;1745654;82;21942;-78
2021/07/25 09:56:05;;;;;;;12.40;4.65;;;;;;;29.54;36.17;100375.05;1695558;82;21162;-87
2021/07/25 09:59:10;;;;;;;7.05;4.42;;;;;;;29.49;35.98;100376.52;1745654;82;21171;-78
2021/07/25 10:02:36;;;;;;;9.20;4.78;;;;;;;29.40;36.24;100380.56;1745770;82;21270;-77
2021/07/25 10:05:41;;;;;;;8.93;4.37;;;;;;;29.40;36.24;100380.56;1745677;82;21290;-78
2021/07/25 10:08:46;;;;;;;10.18;4.15;;;;;;;29.36;35.52;100377.23;1745700;82;21266;-86
2021/07/25 10:11:59;;;;;;;8.43;4.30;;;;;;;29.32;36.93;100369.98;1745621;82;21344;-87
2021/07/25 10:15:05;;;;;;;7.37;4.20;;;;;;;29.19;36.98;100374.34;1745533;82;21285;-82
2021/07/25 10:18:10;;;;;;;10.70;4.40;;;;;;;29.13;36.87;100374.72;1745741;82;21264;-78
2021/07/25 10:21:14;;;;;;;6.80;4.85;;;;;;;29.11;36.54;100384.84;1745705;82;21179;-78
2021/07/25 10:24:19;;;;;;;6.47;3.85;;;;;;;28.98;37.30;100368.65;1745692;82;21341;-80
2021/07/25 10:27:24;;;;;;;9.75;4.20;;;;;;;28.98;37.30;100368.65;1731133;82;21282;-78
2021/07/25 10:30:29;;;;;;;15.45;4.70;;;;;;;29.11;36.06;100370.77;1745280;82;21297;-78
2021/07/25 10:33:35;;;;;;;8.13;4.60;;;;;;;29.16;37.59;100369.88;1735445;81;21157;-78
2021/07/25 10:36:41;;;;;;;12.37;4.45;;;;;;;29.17;38.59;100375.23;1772376;80;21185;-88
2021/07/25 10:39:55;;;;;;;18.27;4.30;;;;;;;29.14;39.03;100374.98;1785706;80;21283;-87
2021/07/25 10:43:01;;;;;;;16.17;4.25;;;;;;;29.20;38.07;100372.36;1784638;80;21327;-88
2021/07/25 10:46:30;;;;;;;7.30;3.65;;;;;;;29.25;37.85;100377.94;1785128;80;21209;-79
2021/07/25 10:49:38;;;;;;;4.78;3.40;;;;;;;29.25;36.46;100375.95;1784416;79;21805;-79
2021/07/25 10:53:03;;;;;;;10.18;4.10;;;;;;;29.20;36.76;100372.36;1784721;80;21145;-87
2021/07/25 10:56:09;;;;;;;9.80;3.65;;;;;;;29.02;37.54;100385.22;1784980;80;21287;-78
2021/07/25 10:59:15;;;;;;;20.43;4.15;;;;;;;28.93;36.63;100386.97;1784719;80;21817;-86
2021/07/25 11:02:35;;;;;;;6.37;4.00;;;;;;;28.93;36.63;100386.97;1784964;80;21860;-80
2021/07/25 11:05:40;;;;;;;7.87;4.30;;;;;;;28.83;36.13;100381.45;1785335;79;21200;-87
2021/07/25 11:08:50;;;;;;;11.40;4.35;;;;;;;28.75;36.86;100378.16;1785365;80;21845;-83
2021/07/25 11:12:01;;;;;;;9.90;4.25;;;;;;;28.78;38.98;100383.17;1784293;79;21161;-79
2021/07/25 11:15:07;;;;;;;7.83;3.85;;;;;;;28.83;38.66;100379.47;1785660;80;21220;-80
2021/07/25 11:18:17;;;;;;;9.25;3.90;;;;;;;28.92;37.34;100376.28;1785741;80;21276;-82
2021/07/25 11:21:24;;;;;;;12.43;4.03;;;;;;;28.98;37.93;100381.32;1785532;80;21760;-80
2021/07/25 11:24:39;;;;;;;5.83;3.87;;;;;;;28.99;38.74;100380.20;1770869;80;21271;-88
2021/07/25 11:27:55;;;;;;;10.70;3.83;;;;;;;29.13;38.28;100380.34;1783909;80;21156;-79
2021/07/25 11:31:12;;;;;;;8.20;3.80;;;;;;;29.20;37.14;100380.24;1783863;80;21287;-87
2021/07/25 11:34:23;;;;;;;5.20;3.62;;;;;;;29.27;36.15;100376.52;1785195;80;21330;-87
2021/07/25 11:37:30;;;;;;;10.80;3.80;;;;;;;29.34;35.84;100376.72;1771304;80;21294;-88
2021/07/25 11:40:37;;;;;;;5.67;3.40;;;;;;;29.29;36.88;100381.27;1769319;80;21295;-79
2021/07/25 11:44:06;;;;;;;5.22;3.35;;;;;;;29.14;34.62;100374.41;1783925;80;21268;-87
2021/07/25 11:47:12;;;;;;;;;;;;;;;28.94;35.52;100377.41;1788357;80;21264;-87
2021/07/25 11:50:17;;;;;;;10.93;3.70;;;;;;;28.73;35.17;100376.75;1785370;79;20264;-87
2021/07/25 11:53:24;;;;;;;13.60;3.67;;;;;;;28.55;36.56;100376.91;1784033;80;21216;-79
2021/07/25 11:56:30;;;;;;;10.90;3.80;;;;;;;28.47;36.45;100377.56;1784651;80;21290;-88
2021/07/25 11:59:37;;;;;;;9.93;3.62;;;;;;;28.42;37.28;100374.76;1785675;80;21275;-88
2021/07/25 12:02:43;;;;;;;9.50;4.70;;;;;;;28.36;36.38;100373.13;1785661;80;21801;-79
2021/07/25 12:05:48;;;;;;;6.60;3.83;;;;;;;28.40;37.11;100372.82;1785336;79;21647;-79
2021/07/25 12:09:12;;;;;;;7.53;3.52;;;;;;;28.52;36.65;100364.86;1785605;80;21250;-88
2021/07/25 12:12:24;;;;;;;9.85;3.50;;;;;;;28.66;35.51;100365.86;1791272;79;21310;-88
2021/07/25 12:15:31;;;;;;;7.87;3.90;;;;;;;28.75;36.60;100371.69;1782662;79;21306;-88
2021/07/25 12:18:37;;;;;;;7.33;3.40;;;;;;;28.75;36.83;100366.06;1750222;80;21244;-88
2021/07/25 12:21:42;;;;;;;8.93;3.50;;;;;;;28.71;35.78;100368.62;1785390;80;21141;-80
2021/07/25 12:24:49;;;;;;;10.40;3.35;;;;;;;28.71;35.61;100362.98;1785599;80;21263;-80
2021/07/25 12:27:55;;;;;;;9.20;3.45;;;;;;;28.72;36.99;100361.84;1785502;80;21264;-89
2021/07/25 12:31:04;;;;;;;9.85;3.47;;;;;;;28.69;37.27;100368.05;1785231;80;21824;-80
2021/07/25 12:34:11;;;;;;;4.17;3.10;;;;;;;28.63;36.95;100360.80;1783709;80;21339;-89
2021/07/25 12:37:38;;;;;;;4.85;3.05;;;;;;;28.58;36.76;100355.23;1784207;79;21204;-79
2021/07/25 12:41:03;;;;;;;10.58;3.40;;;;;;;28.64;38.14;100365.29;1783962;80;21306;-79
2021/07/25 12:44:09;;;;;;;7.65;3.40;;;;;;;28.71;36.44;100361.58;1784028;80;21299;-88
2021/07/25 12:47:34;;;;;;;6.75;3.22;;;;;;;28.79;35.58;100358.67;1784424;80;21208;-78
2021/07/25 12:51:51;;;;;;;6.10;3.12;;;;;;;28.89;35.78;100358.59;1785311;80;21226;-79
2021/07/25 12:54:12;;;;;;;12.15;3.02;;;;;;;28.99;35.88;100359.92;1773172;80;21292;-79
2021/07/25 12:57:20;;;;;;;5.50;3.65;;;;;;;29.03;35.30;100362.42;1785670;80;21299;-79
2021/07/25 13:00:25;;;;;;;8.65;3.70;;;;;;;29.01;33.61;100352.58;1785428;80;21216;-87
2021/07/25 13:03:45;;;;;;;11.10;3.50;;;;;;;29.07;34.92;100361.23;1785408;80;22018;-78
2021/07/25 13:06:51;;;;;;;;;;;;;;;29.08;35.69;100352.21;1786917;79;21837;-88
2021/07/25 13:09:58;;;;;;;13.08;3.35;;;;;;;29.00;36.90;100354.56;1785798;80;20220;-80
2021/07/25 13:13:04;;;;;;;16.23;3.67;;;;;;;28.93;36.31;100360.23;1784129;80;21272;-78
2021/07/25 13:16:15;;;;;;;8.83;3.42;;;;;;;28.87;35.43;100366.48;1784113;80;21192;-79
2021/07/25 13:19:16;;;;;;;6.12;2.98;;;;;;;28.87;35.76;100364.24;1785563;80;21161;-89
2021/07/25 13:22:23;;;;;;;5.78;3.55;;;;;;;28.85;35.75;100367.94;1785759;80;21169;-88
2021/07/25 13:25:27;;;;;;;11.88;3.95;;;;;;;28.81;36.19;100364.87;1785713;80;21212;-80
2021/07/25 13:28:32;;;;;;;6.03;3.42;;;;;;;28.84;34.87;100357.78;1785742;80;21268;-89
2021/07/25 13:31:37;;;;;;;9.80;3.55;;;;;;;28.89;36.31;100361.41;1785555;80;21200;-80
2021/07/25 13:34:42;;;;;;;15.10;3.83;;;;;;;28.92;35.39;100365.59;1784894;80;21323;-88
2021/07/25 13:37:48;;;;;;;4.97;3.27;;;;;;;28.97;35.13;100365.57;1785263;80;21232;-88
2021/07/25 13:40:54;;;;;;;8.28;3.25;;;;;;;29.00;35.31;100377.66;1779890;80;21178;-87
2021/07/25 13:44:02;;;;;;;7.83;2.95;;;;;;;29.00;35.31;100377.66;1771771;81;21205;-88
2021/07/25 13:47:07;;;;;;;7.65;3.47;;;;;;;28.97;34.03;100371.20;1770496;81;21221;-79
2021/07/25 13:50:14;;;;;;;4.22;2.95;;;;;;;28.98;33.44;100365.83;1770642;81;21738;-87
2021/07/25 13:53:19;;;;;;;10.82;3.10;;;;;;;29.02;33.07;100359.88;1772016;80;21845;-88
2021/07/25 13:56:24;;;;;;;4.78;3.40;;;;;;;29.07;34.18;100371.09;1771987;81;21197;-88
2021/07/25 13:59:29;;;;;;;9.60;3.08;;;;;;;29.06;33.88;100373.64;1772496;81;21308;-79
2021/07/25 14:02:35;;;;;;;7.28;3.05;;;;;;;29.07;33.59;100366.87;1771853;81;21261;-79
2021/07/25 14:05:41;;;;;;;8.73;3.12;;;;;;;29.08;34.38;100369.11;1770785;81;21339;-79
2021/07/25 14:08:47;;;;;;;3.70;2.80;;;;;;;29.03;36.72;100363.83;1771315;80;21189;-80
2021/07/25 14:11:53;;;;;;;9.80;3.40;;;;;;;29.00;35.17;100372.03;1770747;81;21316;-80
2021/07/25 14:14:58;;;;;;;6.53;3.30;;;;;;;28.92;34.81;100368.41;1771359;81;21849;-89
2021/07/25 14:18:03;;;;;;;10.20;3.00;;;;;;;28.85;34.44;100366.53;1771873;81;21268;-78
2021/07/25 14:21:16;;;;;;;4.47;3.12;;;;;;;28.85;34.69;100363.71;1771246;81;21893;-86
2021/07/25 14:24:22;;;;;;;14.68;3.35;;;;;;;28.83;35.07;100364.55;1771420;81;21346;-87